West Vancouver, British Columbia

4:05 PM PST on January 30, 2015 (GMT -0800)
Pemberton Heights | Change Station
CLOSE
Current Station
Personal Weather Station
Location: North Vancouver, BRITISH COLUMBIA
Elevation: 161 ft
Nearby Weather Stations

Elev 161 ft 49.33 °N, 123.11 °W | Updated 4 minutes ago

Fog
Fog
44.3 °F
Feels Like 44 °F
N
0.0
Wind Variable Wind from West
Gusts 0.0 mph

Tomorrow is forecast to be nearly the same temperature as today.

Today
High -- | Low -- °F
--% Chance of Precip.
Yesterday
High -- | Low -- °F
Precip. -- in
7:47 AM 5:05 PM
Waxing Gibbous, 86% visible
Pressure 30.29 in
Visibility 0.1 miles
Clouds Overcast 400 ft
Windchill 44 °F
Dew Point 42 °F
Humidity 90%
Rainfall 0.00 in
Snow Depth Not available.
UV 0.0 out of 12
Pollen Not available.
Air Quality Not available.
Flu Activity Not available.
SPECI CYVR 302352Z 27005KT 1/8SM R08L/2000FT/N R08R/1600FT/N FG OVC004 04/04 A3029 RMK FG5ST3 WND ESTD SLP257

More Conditions Fewer Conditions

Pressure 30.29 in
Visibility 0.1 miles
Clouds Overcast 400 ft
Windchill 44 °F
Dew Point 42 °F
Humidity 90%
Rainfall 0.00 in
Snow Depth Not available.
UV 0.0 out of 12
Pollen Not available.
Air Quality Not available.
Flu Activity Not available.
SPECI CYVR 302352Z 27005KT 1/8SM R08L/2000FT/N R08R/1600FT/N FG OVC004 04/04 A3029 RMK FG5ST3 WND ESTD SLP257

More Conditions Fewer Conditions

10-Day Weather Forecast

Almanac

Astronomy

Jan. 30, 2015 Rise Set
Actual Time
Civil Twilight
Nautical Twilight
Astronomical Twilight
Moon
Length of Visible Light
Length of Day
Tomorrow will be .
, % of the Moon is Illuminated

Today's Extremes

Country Highs Country Lows

Community

WunderPhotos

Upload Photos

1,791,939 photos uploaded!

WunderBlogs® & News

Nearby

Air Quality

  Air Quality AQ Index Pollutant
Not available.

Snow Depth

Station Depth Elevation

Earthquake Activity

City Distance Mag. Time & Date
Minimum magnitude displayed is 2.5.

Coastal Water Temperatures

Place Temperature

Nearby Weather Stations